createdAt,value
2022-08-03T00:00:12.171Z,14.17
2022-08-03T00:01:11.962Z,14.17
2022-08-03T00:02:11.892Z,14.19
2022-08-03T00:03:12.040Z,14.21
2022-08-03T00:04:12.032Z,14.26
2022-08-03T00:05:11.996Z,14.24
2022-08-03T00:06:12.140Z,14.23
2022-08-03T00:07:12.164Z,14.23
2022-08-03T00:08:12.303Z,14.21
2022-08-03T00:09:12.364Z,14.21
2022-08-03T00:10:12.543Z,14.19
2022-08-03T00:11:13.554Z,14.19
2022-08-03T00:12:12.520Z,14.20
2022-08-03T00:13:12.693Z,14.24
2022-08-03T00:14:12.709Z,14.24
2022-08-03T00:15:16.355Z,14.24
2022-08-03T00:16:12.934Z,14.23
2022-08-03T00:17:12.990Z,14.20
2022-08-03T00:18:13.051Z,14.21
2022-08-03T00:19:13.142Z,14.20
2022-08-03T00:20:13.210Z,14.21
2022-08-03T00:21:13.331Z,14.21
2022-08-03T00:22:13.554Z,14.24
2022-08-03T00:23:13.514Z,14.27
2022-08-03T00:24:13.510Z,14.30
2022-08-03T00:25:13.585Z,14.31
2022-08-03T00:26:13.688Z,14.31
2022-08-03T00:27:16.616Z,14.34
2022-08-03T00:28:13.837Z,14.31
2022-08-03T00:29:13.890Z,14.29
2022-08-03T00:30:14.017Z,14.27
2022-08-03T00:31:14.084Z,14.26
2022-08-03T00:32:14.392Z,14.23
2022-08-03T00:33:14.167Z,14.20
2022-08-03T00:34:14.251Z,14.17
2022-08-03T00:35:36.570Z,14.04
2022-08-03T00:36:14.440Z,13.98
2022-08-03T00:37:14.626Z,13.91
2022-08-03T00:38:14.526Z,13.87
2022-08-03T00:39:14.717Z,13.86
2022-08-03T00:40:14.729Z,13.84
2022-08-03T00:41:15.663Z,13.84
2022-08-03T00:42:15.403Z,13.86
2022-08-03T00:43:15.080Z,13.83
2022-08-03T00:44:15.174Z,13.86
2022-08-03T00:45:15.255Z,13.86
2022-08-03T00:46:20.607Z,13.87
2022-08-03T00:47:15.340Z,13.90
2022-08-03T00:48:19.694Z,13.94
2022-08-03T00:49:15.541Z,13.96
2022-08-03T00:50:15.631Z,13.98
2022-08-03T00:51:15.693Z,13.96
2022-08-03T00:52:15.799Z,13.96
2022-08-03T00:53:15.781Z,13.98
2022-08-03T00:54:15.850Z,13.99
2022-08-03T00:55:16.120Z,13.98
2022-08-03T00:56:16.101Z,13.99
2022-08-03T00:57:16.193Z,13.96
2022-08-03T00:58:16.278Z,13.93
2022-08-03T00:59:16.256Z,13.94
2022-08-03T01:00:16.344Z,13.87
2022-08-03T01:01:16.769Z,13.88
2022-08-03T01:02:16.864Z,13.91
2022-08-03T01:03:16.626Z,13.90
2022-08-03T01:04:16.779Z,13.88
2022-08-03T01:05:16.865Z,13.91
2022-08-03T01:06:16.889Z,13.96
2022-08-03T01:07:16.985Z,13.99
2022-08-03T01:08:17.067Z,14.01
2022-08-03T01:09:17.167Z,14.02
2022-08-03T01:10:17.190Z,14.06
2022-08-03T01:11:17.333Z,14.06
2022-08-03T01:12:17.667Z,14.06
2022-08-03T01:13:59.957Z,14.09
2022-08-03T01:14:18.279Z,14.06
2022-08-03T01:15:17.537Z,14.01
2022-08-03T01:16:17.686Z,13.98
2022-08-03T01:17:17.699Z,13.93
2022-08-03T01:18:17.800Z,13.87
2022-08-03T01:19:17.853Z,13.86
2022-08-03T01:20:17.950Z,13.81
2022-08-03T01:21:18.064Z,13.81
2022-08-03T01:22:18.408Z,13.81
2022-08-03T01:23:18.170Z,13.83
2022-08-03T01:24:18.222Z,13.86
2022-08-03T01:25:18.326Z,13.88
2022-08-03T01:26:18.512Z,13.91
2022-08-03T01:27:18.547Z,13.93
2022-08-03T01:28:18.530Z,13.98
2022-08-03T01:29:18.589Z,14.02
2022-08-03T01:30:18.676Z,14.02
2022-08-03T01:31:18.793Z,14.04
2022-08-03T01:32:58.899Z,14.04
2022-08-03T01:33:18.929Z,14.01
2022-08-03T01:34:19.083Z,13.99
2022-08-03T01:35:19.137Z,13.96
2022-08-03T01:36:19.202Z,13.96
2022-08-03T01:37:19.230Z,13.94
2022-08-03T01:38:19.294Z,13.94
2022-08-03T01:39:19.369Z,13.93
2022-08-03T01:40:19.577Z,13.93
2022-08-03T01:41:19.615Z,13.96
2022-08-03T01:42:19.708Z,14.02
2022-08-03T01:43:55.165Z,14.04
2022-08-03T01:44:31.809Z,14.08
2022-08-03T01:45:19.910Z,14.13
2022-08-03T01:46:20.018Z,14.20
2022-08-03T01:47:20.056Z,14.23
2022-08-03T01:48:20.252Z,14.29
2022-08-03T01:49:20.485Z,14.35
2022-08-03T01:50:20.353Z,14.39
2022-08-03T01:51:20.540Z,14.45
2022-08-03T01:52:20.637Z,14.46
2022-08-03T01:53:20.533Z,14.52
2022-08-03T01:54:20.704Z,14.54
2022-08-03T01:55:20.764Z,14.59
2022-08-03T01:56:20.893Z,14.61
2022-08-03T01:57:21.030Z,14.64
2022-08-03T01:58:21.026Z,14.66
2022-08-03T01:59:20.991Z,14.71
2022-08-03T02:00:21.174Z,14.66
2022-08-03T02:01:21.668Z,14.63
2022-08-03T02:02:32.940Z,14.64
2022-08-03T02:03:21.405Z,14.64
2022-08-03T02:04:21.506Z,14.67
2022-08-03T02:05:21.558Z,14.72
2022-08-03T02:07:00.098Z,14.74
2022-08-03T02:07:21.712Z,14.74
2022-08-03T02:08:21.787Z,14.78
2022-08-03T02:09:21.874Z,14.78
2022-08-03T02:10:34.641Z,14.79
2022-08-03T02:11:22.027Z,14.78
2022-08-03T02:12:22.118Z,14.79
2022-08-03T02:13:22.283Z,14.80
2022-08-03T02:14:22.297Z,14.80
2022-08-03T02:15:22.394Z,14.82
2022-08-03T02:16:22.339Z,14.82
2022-08-03T02:17:39.111Z,14.82
2022-08-03T02:18:22.607Z,14.82
2022-08-03T02:19:22.680Z,14.83
2022-08-03T02:20:22.668Z,14.85
2022-08-03T02:21:57.090Z,14.86
2022-08-03T02:22:22.919Z,14.90
2022-08-03T02:23:22.975Z,14.90
2022-08-03T02:24:23.087Z,14.93
2022-08-03T02:25:23.047Z,14.94
2022-08-03T02:26:23.125Z,14.95
2022-08-03T02:27:23.260Z,14.95
2022-08-03T02:28:23.408Z,14.93
2022-08-03T02:29:39.315Z,14.93
2022-08-03T02:30:23.476Z,14.91
2022-08-03T02:31:23.610Z,14.93
2022-08-03T02:32:23.687Z,14.94
2022-08-03T02:33:23.646Z,14.91
2022-08-03T02:34:23.793Z,14.91
2022-08-03T02:35:23.891Z,14.87
2022-08-03T02:36:23.967Z,14.85
2022-08-03T02:37:23.977Z,14.83
2022-08-03T02:38:24.131Z,14.82
2022-08-03T02:39:24.108Z,14.79
2022-08-03T02:40:24.268Z,14.74
2022-08-03T02:41:24.336Z,14.72
2022-08-03T02:42:24.411Z,14.69
2022-08-03T02:43:24.402Z,14.71
2022-08-03T02:44:24.436Z,14.71
2022-08-03T02:45:24.528Z,14.69
2022-08-03T02:46:24.687Z,14.67
2022-08-03T02:47:24.720Z,14.67
2022-08-03T02:48:24.830Z,14.69
2022-08-03T02:49:40.929Z,14.67
2022-08-03T02:50:25.074Z,14.71
2022-08-03T02:51:25.027Z,14.71
2022-08-03T02:52:25.138Z,14.72
2022-08-03T02:53:25.157Z,14.72
2022-08-03T02:54:25.337Z,14.71
2022-08-03T02:55:25.230Z,14.71
2022-08-03T02:56:25.352Z,14.66
2022-08-03T02:57:25.530Z,14.59
2022-08-03T02:58:25.566Z,14.57
2022-08-03T02:59:25.618Z,14.56
2022-08-03T03:00:28.050Z,14.56
2022-08-03T03:01:25.929Z,14.54
2022-08-03T03:02:25.987Z,14.52
2022-08-03T03:03:28.249Z,14.53
2022-08-03T03:04:27.598Z,14.46
2022-08-03T03:05:53.026Z,14.44
2022-08-03T03:06:26.129Z,14.44
2022-08-03T03:07:26.350Z,14.42
2022-08-03T03:08:28.621Z,14.41
2022-08-03T03:09:26.452Z,14.39
2022-08-03T03:10:26.523Z,14.38
2022-08-03T03:11:26.606Z,14.36
2022-08-03T03:12:26.693Z,14.35
2022-08-03T03:13:26.754Z,14.34
2022-08-03T03:14:33.525Z,14.35
2022-08-03T03:15:26.925Z,14.34
2022-08-03T03:16:26.906Z,14.35
2022-08-03T03:17:27.155Z,14.34
2022-08-03T03:18:27.070Z,14.35
2022-08-03T03:19:27.166Z,14.31
2022-08-03T03:20:30.283Z,14.31
2022-08-03T03:21:27.414Z,14.30
2022-08-03T03:22:27.409Z,14.27
2022-08-03T03:23:27.526Z,14.24
2022-08-03T03:24:27.626Z,14.23
2022-08-03T03:25:27.705Z,14.23
2022-08-03T03:26:27.756Z,14.17
2022-08-03T03:27:27.867Z,14.13
2022-08-03T03:28:27.900Z,14.09
2022-08-03T03:29:27.897Z,14.06
2022-08-03T03:30:27.961Z,14.04
2022-08-03T03:31:28.110Z,14.04
2022-08-03T03:32:28.302Z,14.01
2022-08-03T03:33:28.702Z,14.01
2022-08-03T03:34:28.345Z,13.99
2022-08-03T03:35:28.379Z,13.99
2022-08-03T03:36:28.546Z,14.01
2022-08-03T03:37:28.625Z,14.02
2022-08-03T03:38:28.659Z,14.06
2022-08-03T03:39:28.641Z,14.09
2022-08-03T03:40:28.754Z,14.13
2022-08-03T03:41:28.798Z,14.17
2022-08-03T03:42:28.897Z,14.20
2022-08-03T03:43:29.006Z,14.20
2022-08-03T03:44:29.053Z,14.17
2022-08-03T03:45:29.145Z,14.20
2022-08-03T03:46:29.245Z,14.17
2022-08-03T03:47:32.462Z,14.17
2022-08-03T03:48:29.567Z,14.13
2022-08-03T03:49:29.596Z,14.12
2022-08-03T03:50:29.483Z,14.11
2022-08-03T03:51:29.584Z,14.09
2022-08-03T03:52:29.686Z,14.11
2022-08-03T03:53:29.826Z,14.11
2022-08-03T03:54:29.891Z,14.16
2022-08-03T03:55:30.034Z,14.27
2022-08-03T03:56:30.008Z,14.41
2022-08-03T03:57:30.144Z,14.49
2022-08-03T03:58:30.174Z,14.53
2022-08-03T03:59:30.348Z,14.49
2022-08-03T04:00:30.433Z,14.54
2022-08-03T04:01:30.436Z,14.59
2022-08-03T04:02:30.780Z,14.61
2022-08-03T04:03:30.589Z,14.67
2022-08-03T04:04:30.625Z,14.74
2022-08-03T04:05:30.709Z,14.78
2022-08-03T04:06:30.776Z,14.80
2022-08-03T04:07:30.896Z,14.79
2022-08-03T04:08:30.926Z,14.79
2022-08-03T04:09:31.048Z,14.82
2022-08-03T04:10:31.098Z,14.75
2022-08-03T04:11:32.013Z,14.78
2022-08-03T04:12:31.266Z,14.75
2022-08-03T04:13:31.301Z,14.74
2022-08-03T04:14:31.357Z,14.72
2022-08-03T04:15:31.455Z,14.74
2022-08-03T04:16:31.533Z,14.75
2022-08-03T04:17:31.606Z,14.74
2022-08-03T04:18:31.683Z,14.78
2022-08-03T04:19:31.735Z,14.80
2022-08-03T04:20:31.846Z,14.83
2022-08-03T04:21:31.916Z,14.87
2022-08-03T04:22:32.050Z,14.94
2022-08-03T04:23:32.108Z,14.98
2022-08-03T04:24:32.193Z,15.04
2022-08-03T04:25:32.246Z,15.07
2022-08-03T04:26:32.336Z,15.11
2022-08-03T04:27:32.513Z,15.13
2022-08-03T04:28:32.532Z,15.15
2022-08-03T04:29:32.597Z,15.20
2022-08-03T04:30:32.633Z,15.30
2022-08-03T04:31:32.731Z,15.37
2022-08-03T04:32:32.863Z,15.43
2022-08-03T04:33:32.905Z,15.43
2022-08-03T04:34:32.982Z,15.49
2022-08-03T04:35:54.658Z,15.53
2022-08-03T04:36:33.140Z,15.62
2022-08-03T04:37:33.267Z,15.70
2022-08-03T04:38:33.285Z,15.76
2022-08-03T04:39:33.362Z,15.81
2022-08-03T04:40:33.457Z,15.86
2022-08-03T04:41:33.515Z,15.86
2022-08-03T04:42:33.695Z,15.84
2022-08-03T04:43:33.688Z,15.86
2022-08-03T04:44:33.785Z,15.88
2022-08-03T04:45:33.812Z,15.92
2022-08-03T04:46:33.913Z,15.99
2022-08-03T04:47:34.107Z,16.07
2022-08-03T04:48:34.165Z,16.11
2022-08-03T04:49:34.332Z,16.18
2022-08-03T04:50:34.352Z,16.23
2022-08-03T04:51:34.451Z,16.25
2022-08-03T04:52:34.606Z,16.29
2022-08-03T04:53:34.521Z,16.41
2022-08-03T04:54:34.662Z,16.50
2022-08-03T04:55:34.630Z,16.62
2022-08-03T04:56:34.780Z,16.75
2022-08-03T04:57:34.811Z,16.92
2022-08-03T04:58:34.957Z,17.06
2022-08-03T04:59:34.937Z,17.17
2022-08-03T05:00:35.047Z,17.28
2022-08-03T05:01:35.183Z,17.38
2022-08-03T05:02:35.336Z,17.43
2022-08-03T05:03:35.266Z,17.54
2022-08-03T05:04:35.346Z,17.58
2022-08-03T05:05:48.912Z,17.66
2022-08-03T05:06:35.602Z,17.81
2022-08-03T05:07:36.718Z,17.84
2022-08-03T05:08:35.718Z,18.02
2022-08-03T05:09:50.227Z,18.17
2022-08-03T05:10:35.853Z,18.32
2022-08-03T05:11:36.060Z,18.36
2022-08-03T05:12:36.197Z,18.53
2022-08-03T05:13:36.220Z,18.64
2022-08-03T05:14:36.327Z,18.62
2022-08-03T05:15:36.396Z,18.75
2022-08-03T05:16:36.527Z,18.89
2022-08-03T05:17:36.524Z,18.93
2022-08-03T05:18:36.632Z,18.97
2022-08-03T05:19:36.661Z,19.16
2022-08-03T05:20:36.916Z,19.30
2022-08-03T05:21:49.286Z,19.50
2022-08-03T05:22:36.959Z,19.67
2022-08-03T05:23:37.014Z,19.78
2022-08-03T05:24:37.145Z,19.89
2022-08-03T05:25:37.240Z,19.95
2022-08-03T05:26:37.405Z,20.10
2022-08-03T05:27:37.470Z,20.13
2022-08-03T05:28:37.494Z,20.27
2022-08-03T05:29:37.563Z,20.35
2022-08-03T05:30:37.598Z,20.54
2022-08-03T05:31:37.749Z,20.66
2022-08-03T05:32:37.862Z,20.71
2022-08-03T05:33:37.879Z,20.73
2022-08-03T05:34:37.895Z,20.72
2022-08-03T05:35:57.787Z,20.71
2022-08-03T05:36:38.139Z,20.75
2022-08-03T05:37:38.252Z,20.81
2022-08-03T05:38:38.309Z,20.90
2022-08-03T05:39:38.379Z,21.16
2022-08-03T05:40:38.459Z,21.42
2022-08-03T05:41:38.404Z,21.55
2022-08-03T05:42:38.565Z,21.46
2022-08-03T05:43:38.565Z,21.56
2022-08-03T05:44:38.854Z,21.63
2022-08-03T05:45:38.786Z,21.70
2022-08-03T05:46:38.886Z,21.75
2022-08-03T05:47:39.029Z,21.79
2022-08-03T05:48:38.995Z,21.85
2022-08-03T05:49:39.130Z,21.90
2022-08-03T05:50:42.760Z,21.94
2022-08-03T05:51:39.293Z,21.99
2022-08-03T05:52:39.353Z,21.98
2022-08-03T05:53:46.046Z,22.01
2022-08-03T05:54:56.107Z,21.98
2022-08-03T05:55:39.625Z,21.99
2022-08-03T05:56:40.566Z,22.05
2022-08-03T05:57:39.741Z,22.19
2022-08-03T05:58:39.817Z,22.33
2022-08-03T05:59:39.917Z,22.35
2022-08-03T06:00:40.037Z,22.27
2022-08-03T06:01:40.207Z,22.38
2022-08-03T06:02:40.499Z,22.49
2022-08-03T06:03:40.314Z,22.60
2022-08-03T06:04:40.363Z,22.66
2022-08-03T06:05:43.410Z,22.61
2022-08-03T06:06:40.448Z,22.66
2022-08-03T06:07:40.551Z,22.67
2022-08-03T06:08:41.294Z,22.67
2022-08-03T06:10:34.240Z,22.76
2022-08-03T06:10:42.808Z,22.84
2022-08-03T06:11:40.822Z,22.97
2022-08-03T06:12:40.910Z,23.11
2022-08-03T06:13:40.959Z,23.23
2022-08-03T06:14:41.168Z,23.35
2022-08-03T06:15:41.269Z,23.34
2022-08-03T06:16:41.325Z,23.34
2022-08-03T06:17:41.550Z,23.07
2022-08-03T06:18:41.486Z,22.99
2022-08-03T06:19:41.588Z,23.03
2022-08-03T06:20:41.697Z,23.12
2022-08-03T06:21:41.797Z,23.18
2022-08-03T06:22:50.864Z,23.29
2022-08-03T06:23:54.517Z,23.52
2022-08-03T06:24:41.967Z,23.68
2022-08-03T06:25:42.053Z,23.78
2022-08-03T06:26:42.049Z,23.89
2022-08-03T06:27:42.297Z,23.92
2022-08-03T06:28:52.850Z,24.04
2022-08-03T06:29:42.458Z,23.97
2022-08-03T06:30:42.358Z,23.93
2022-08-03T06:31:42.565Z,23.90
2022-08-03T06:32:42.596Z,23.96
2022-08-03T06:34:30.508Z,23.96
2022-08-03T06:34:42.708Z,24.04
2022-08-03T06:35:42.799Z,24.11
2022-08-03T06:36:42.904Z,24.15
2022-08-03T06:37:43.025Z,24.16
2022-08-03T06:38:43.015Z,24.19
2022-08-03T06:39:43.783Z,24.21
2022-08-03T06:40:43.203Z,24.34
2022-08-03T06:41:44.873Z,24.48
2022-08-03T06:42:43.409Z,24.46
2022-08-03T06:44:03.709Z,24.45
2022-08-03T06:44:43.503Z,24.41
2022-08-03T06:45:43.613Z,24.46
2022-08-03T06:46:43.643Z,24.59
2022-08-03T06:47:44.587Z,24.64
2022-08-03T06:48:43.854Z,24.68
2022-08-03T06:49:44.015Z,24.59
2022-08-03T06:50:44.035Z,24.61
2022-08-03T06:52:03.302Z,24.68
2022-08-03T06:52:44.285Z,24.77
2022-08-03T06:53:44.287Z,24.86
2022-08-03T06:54:44.534Z,24.98
2022-08-03T06:55:44.425Z,25.12
2022-08-03T06:56:44.598Z,25.20
2022-08-03T06:57:44.763Z,25.09
2022-08-03T06:58:44.873Z,25.01
2022-08-03T07:00:09.608Z,24.94
2022-08-03T07:00:44.899Z,24.90
2022-08-03T07:01:45.083Z,24.92
2022-08-03T07:02:45.463Z,24.99
2022-08-03T07:03:47.628Z,25.02
2022-08-03T07:04:45.306Z,25.07
2022-08-03T07:05:45.373Z,25.12
2022-08-03T07:06:45.499Z,25.19
2022-08-03T07:07:45.517Z,25.31
2022-08-03T07:08:46.973Z,25.36
2022-08-03T07:09:57.425Z,25.38
2022-08-03T07:10:45.805Z,25.41
2022-08-03T07:11:45.948Z,25.53
2022-08-03T07:12:55.815Z,25.59
2022-08-03T07:13:46.017Z,25.57
2022-08-03T07:14:46.121Z,25.60
2022-08-03T07:15:54.916Z,25.61
2022-08-03T07:16:46.233Z,25.66
2022-08-03T07:17:46.314Z,25.66
2022-08-03T07:18:46.366Z,25.76
2022-08-03T07:19:46.396Z,25.79
2022-08-03T07:20:46.515Z,25.82
2022-08-03T07:21:46.666Z,25.90
2022-08-03T07:22:46.771Z,25.97
2022-08-03T07:23:46.858Z,25.97
2022-08-03T07:24:46.757Z,25.96
2022-08-03T07:25:46.857Z,26.01
2022-08-03T07:26:47.064Z,26.03
2022-08-03T07:27:51.641Z,26.01
2022-08-03T07:28:48.143Z,26.01
2022-08-03T07:29:48.401Z,26.04
2022-08-03T07:30:47.394Z,26.09
2022-08-03T07:31:47.605Z,26.09
2022-08-03T07:32:50.180Z,26.11
2022-08-03T07:33:47.574Z,26.13
2022-08-03T07:34:47.594Z,26.17
2022-08-03T07:35:47.749Z,26.31
2022-08-03T07:36:47.764Z,26.38
2022-08-03T07:37:54.759Z,26.44
2022-08-03T07:38:47.930Z,26.49
2022-08-03T07:39:48.017Z,26.54
2022-08-03T07:40:48.044Z,26.50
2022-08-03T07:41:48.106Z,26.51
2022-08-03T07:42:48.215Z,26.56
2022-08-03T07:43:48.352Z,26.61
2022-08-03T07:44:48.317Z,26.68
2022-08-03T07:45:48.408Z,26.66
2022-08-03T07:46:48.485Z,26.71
2022-08-03T07:47:53.301Z,26.75
2022-08-03T07:48:48.740Z,26.69
2022-08-03T07:49:48.763Z,26.69
2022-08-03T07:50:48.859Z,26.78
2022-08-03T07:51:48.900Z,26.91
2022-08-03T07:52:48.978Z,26.97
2022-08-03T07:53:49.097Z,27.02
2022-08-03T07:54:49.141Z,27.05
2022-08-03T07:55:49.366Z,26.83
2022-08-03T07:56:49.326Z,26.73
2022-08-03T07:57:49.498Z,26.75
2022-08-03T07:58:49.534Z,26.69
2022-08-03T08:00:01.890Z,26.71
2022-08-03T08:00:49.669Z,26.79
2022-08-03T08:01:49.727Z,26.96
2022-08-03T08:02:49.715Z,27.05
2022-08-03T08:03:53.376Z,27.08
2022-08-03T08:04:49.926Z,27.15
2022-08-03T08:05:50.514Z,27.20
2022-08-03T08:06:50.206Z,27.21
2022-08-03T08:07:51.611Z,27.21
2022-08-03T08:08:50.216Z,27.30
2022-08-03T08:09:50.277Z,27.38
2022-08-03T08:10:58.725Z,27.42
2022-08-03T08:11:50.468Z,27.39
2022-08-03T08:12:50.682Z,27.35
2022-08-03T08:13:51.012Z,27.38
2022-08-03T08:14:50.693Z,27.39
2022-08-03T08:15:50.932Z,27.45
2022-08-03T08:16:50.949Z,27.50
2022-08-03T08:17:51.234Z,27.62
2022-08-03T08:18:51.425Z,27.72
2022-08-03T08:19:51.718Z,27.66
2022-08-03T08:20:51.340Z,27.68
2022-08-03T08:21:53.448Z,27.63
2022-08-03T08:22:51.927Z,27.59
2022-08-03T08:23:56.978Z,27.53
2022-08-03T08:24:51.517Z,27.52
2022-08-03T08:25:51.761Z,27.53
2022-08-03T08:26:51.624Z,27.42
2022-08-03T08:28:31.636Z,27.40
2022-08-03T08:28:52.106Z,27.38
2022-08-03T08:29:55.227Z,27.42
2022-08-03T08:30:51.924Z,27.45
2022-08-03T08:31:52.004Z,27.43
2022-08-03T08:32:52.900Z,27.40
2022-08-03T08:34:07.694Z,27.45
2022-08-03T08:34:52.764Z,27.50
2022-08-03T08:35:52.235Z,27.68
2022-08-03T08:36:52.367Z,27.83
2022-08-03T08:37:52.421Z,27.98
2022-08-03T08:38:52.567Z,28.09
2022-08-03T08:39:52.577Z,28.08
2022-08-03T08:40:52.662Z,28.20
2022-08-03T08:41:53.371Z,28.33
2022-08-03T08:42:59.927Z,28.40
2022-08-03T08:43:58.181Z,28.46
2022-08-03T08:44:52.998Z,28.62
2022-08-03T08:45:53.084Z,28.64
2022-08-03T08:46:53.198Z,28.94
2022-08-03T08:47:55.747Z,29.48
2022-08-03T08:48:53.484Z,29.78
2022-08-03T08:50:08.923Z,30.03
2022-08-03T08:50:53.515Z,30.40
2022-08-03T08:52:00.746Z,30.61
2022-08-03T08:52:53.646Z,30.72
2022-08-03T08:53:53.888Z,30.37
2022-08-03T08:54:53.832Z,30.21
2022-08-03T08:55:59.755Z,30.06
2022-08-03T08:56:53.986Z,29.95
2022-08-03T08:57:54.115Z,29.97
2022-08-03T08:58:54.231Z,30.07
2022-08-03T08:59:57.241Z,30.26
2022-08-03T09:00:54.410Z,30.42
2022-08-03T09:01:54.416Z,30.54
2022-08-03T09:02:54.485Z,29.71
2022-08-03T09:03:54.859Z,29.26
2022-08-03T09:04:54.685Z,29.08
2022-08-03T09:05:56.070Z,29.03
2022-08-03T09:07:17.970Z,28.82
2022-08-03T09:07:54.885Z,28.88
2022-08-03T09:08:55.034Z,28.76
2022-08-03T09:10:12.049Z,28.67
2022-08-03T09:10:55.139Z,28.51
2022-08-03T09:12:09.004Z,28.46
2022-08-03T09:12:55.296Z,28.51
2022-08-03T09:13:56.520Z,28.69
2022-08-03T09:15:16.079Z,28.72
2022-08-03T09:16:00.790Z,28.69
2022-08-03T09:16:55.669Z,28.55
2022-08-03T09:17:55.698Z,28.54
2022-08-03T09:19:06.415Z,28.65
2022-08-03T09:20:03.102Z,28.69
2022-08-03T09:20:55.906Z,28.83
2022-08-03T09:21:55.994Z,29.00
2022-08-03T09:22:56.056Z,29.14
2022-08-03T09:24:05.292Z,29.37
2022-08-03T09:25:21.638Z,29.29
2022-08-03T09:25:56.657Z,29.03
2022-08-03T09:26:56.396Z,28.97
2022-08-03T09:27:56.454Z,28.92
2022-08-03T09:29:04.087Z,28.94
2022-08-03T09:29:56.707Z,28.97
2022-08-03T09:30:56.744Z,28.95
2022-08-03T09:31:56.815Z,29.08
2022-08-03T09:32:56.872Z,29.07
2022-08-03T09:33:56.922Z,29.02
2022-08-03T09:34:58.241Z,28.92
2022-08-03T09:35:57.752Z,28.94
2022-08-03T09:36:57.190Z,29.17
2022-08-03T09:38:13.830Z,29.35
2022-08-03T09:38:57.427Z,29.51
2022-08-03T09:39:57.543Z,29.44
2022-08-03T09:41:00.256Z,29.32
2022-08-03T09:41:57.553Z,29.18
2022-08-03T09:42:57.607Z,28.98
2022-08-03T09:43:57.685Z,28.92
2022-08-03T09:44:57.823Z,29.05
2022-08-03T09:45:57.963Z,29.05
2022-08-03T09:46:57.992Z,29.10
2022-08-03T09:47:58.132Z,29.18
2022-08-03T09:48:58.244Z,29.32
2022-08-03T09:49:58.272Z,29.37
2022-08-03T09:51:13.611Z,29.33
2022-08-03T09:52:33.089Z,29.48
2022-08-03T09:52:58.438Z,29.35
2022-08-03T09:53:59.503Z,29.35
2022-08-03T09:54:58.738Z,29.44
2022-08-03T09:56:34.480Z,29.51
2022-08-03T09:56:58.759Z,29.64
2022-08-03T09:57:58.949Z,29.64
2022-08-03T09:58:58.996Z,29.76
2022-08-03T10:00:04.650Z,29.88
2022-08-03T10:00:59.236Z,29.81
2022-08-03T10:01:59.190Z,29.82
2022-08-03T10:02:59.300Z,29.64
2022-08-03T10:04:02.907Z,29.64
2022-08-03T10:04:59.623Z,29.73
2022-08-03T10:06:00.213Z,29.69
2022-08-03T10:06:59.684Z,29.84
2022-08-03T10:07:59.595Z,29.99
2022-08-03T10:08:59.702Z,30.04
2022-08-03T10:10:30.157Z,30.04
2022-08-03T10:10:59.895Z,30.08
2022-08-03T10:11:59.965Z,30.25
2022-08-03T10:13:00.211Z,30.32
2022-08-03T10:14:01.489Z,30.29
2022-08-03T10:15:00.286Z,30.19
2022-08-03T10:16:21.520Z,30.34
2022-08-03T10:17:00.537Z,30.32
2022-08-03T10:18:00.458Z,30.36
2022-08-03T10:19:00.605Z,30.19
2022-08-03T10:20:00.858Z,30.11
2022-08-03T10:21:00.777Z,30.19
2022-08-03T10:22:00.754Z,30.18
2022-08-03T10:23:00.906Z,30.06
2022-08-03T10:24:00.902Z,29.89
2022-08-03T10:25:01.148Z,29.86
2022-08-03T10:26:01.192Z,29.78
2022-08-03T10:27:01.342Z,29.64
2022-08-03T10:28:01.320Z,29.64
2022-08-03T10:29:01.378Z,29.67
2022-08-03T10:30:01.448Z,29.69
2022-08-03T10:31:01.543Z,29.78
2022-08-03T10:32:01.635Z,29.99
2022-08-03T10:33:01.733Z,30.26
2022-08-03T10:34:01.788Z,30.53
2022-08-03T10:35:01.900Z,30.54
2022-08-03T10:36:01.978Z,30.57
2022-08-03T10:37:01.963Z,30.60
2022-08-03T10:38:02.052Z,30.53
2022-08-03T10:39:02.145Z,30.59
2022-08-03T10:40:02.382Z,30.49
2022-08-03T10:41:02.259Z,30.34
2022-08-03T10:42:02.800Z,30.06
2022-08-03T10:43:02.476Z,29.82
2022-08-03T10:44:02.612Z,29.70
2022-08-03T10:45:02.624Z,29.57
2022-08-03T10:46:02.783Z,29.73
2022-08-03T10:47:02.821Z,29.95
2022-08-03T10:48:02.928Z,30.04
2022-08-03T10:49:03.077Z,30.16
2022-08-03T10:50:03.087Z,30.21
2022-08-03T10:51:03.113Z,30.36
2022-08-03T10:52:08.427Z,30.44
2022-08-03T10:53:03.797Z,30.28
2022-08-03T10:54:03.367Z,30.15
2022-08-03T10:55:07.847Z,29.91
2022-08-03T10:56:03.468Z,29.89
2022-08-03T10:57:14.519Z,29.99
2022-08-03T10:58:06.807Z,30.08
2022-08-03T10:59:03.998Z,30.16
2022-08-03T11:00:03.952Z,30.04
2022-08-03T11:01:04.036Z,30.03
2022-08-03T11:02:03.952Z,30.11
2022-08-03T11:03:04.119Z,30.19
2022-08-03T11:04:09.592Z,30.19
2022-08-03T11:05:04.639Z,30.25
2022-08-03T11:06:04.370Z,30.44
2022-08-03T11:07:04.409Z,30.68
2022-08-03T11:08:04.514Z,30.68
2022-08-03T11:09:04.466Z,30.51
2022-08-03T11:10:08.926Z,30.28
2022-08-03T11:11:04.780Z,30.11
2022-08-03T11:12:04.693Z,30.16
2022-08-03T11:13:04.885Z,30.34
2022-08-03T11:14:04.908Z,30.49
2022-08-03T11:15:04.902Z,30.61
2022-08-03T11:16:07.180Z,30.63
2022-08-03T11:17:05.045Z,30.72
2022-08-03T11:18:05.085Z,30.81
2022-08-03T11:19:05.174Z,30.81
2022-08-03T11:20:05.228Z,30.86
2022-08-03T11:21:05.373Z,30.94
2022-08-03T11:22:05.423Z,31.07
2022-08-03T11:23:05.543Z,31.09
2022-08-03T11:24:06.770Z,31.09
2022-08-03T11:25:05.625Z,31.07
2022-08-03T11:26:05.879Z,31.09
2022-08-03T11:27:05.991Z,31.13
2022-08-03T11:28:05.936Z,31.10
2022-08-03T11:29:06.024Z,31.05
2022-08-03T11:30:06.142Z,30.97
2022-08-03T11:31:06.135Z,31.00
2022-08-03T11:32:06.196Z,31.04
2022-08-03T11:33:06.319Z,31.07
2022-08-03T11:34:06.443Z,31.19
2022-08-03T11:35:06.524Z,31.31
2022-08-03T11:36:06.556Z,31.45
2022-08-03T11:37:06.582Z,31.72
2022-08-03T11:38:06.667Z,31.79
2022-08-03T11:39:06.725Z,31.59
2022-08-03T11:40:06.880Z,31.60
2022-08-03T11:41:06.987Z,31.72
2022-08-03T11:42:07.008Z,31.82
2022-08-03T11:43:06.988Z,31.78
2022-08-03T11:44:07.045Z,31.74
2022-08-03T11:45:07.140Z,31.72
2022-08-03T11:46:07.340Z,31.75
2022-08-03T11:47:07.368Z,31.84
2022-08-03T11:48:07.466Z,31.69
2022-08-03T11:49:10.927Z,31.59
2022-08-03T11:50:07.756Z,31.50
2022-08-03T11:51:07.700Z,31.54
2022-08-03T11:52:07.723Z,31.41
2022-08-03T11:53:07.902Z,31.23
2022-08-03T11:55:04.896Z,31.19
2022-08-03T11:56:05.975Z,31.12
2022-08-03T11:57:06.127Z,31.09
2022-08-03T11:59:01.028Z,31.18
2022-08-03T11:59:24.404Z,31.01
2022-08-03T12:00:06.329Z,31.03
2022-08-03T12:01:06.325Z,31.09
2022-08-03T12:02:06.482Z,31.13
2022-08-03T12:03:06.694Z,31.30
2022-08-03T12:04:06.580Z,31.42
2022-08-03T12:05:06.703Z,31.40
2022-08-03T12:06:06.788Z,31.22
2022-08-03T12:07:06.996Z,31.34
2022-08-03T12:08:07.315Z,31.59
2022-08-03T12:09:07.018Z,31.78
2022-08-03T12:10:07.141Z,31.78
2022-08-03T12:11:07.154Z,31.62
2022-08-03T12:12:07.266Z,31.56
2022-08-03T12:14:08.892Z,31.62
2022-08-03T12:14:54.336Z,31.67
2022-08-03T12:15:07.416Z,31.49
2022-08-03T12:16:07.478Z,31.49
2022-08-03T12:17:07.663Z,31.54
2022-08-03T12:18:07.683Z,31.57
2022-08-03T12:19:07.748Z,31.62
2022-08-03T12:20:07.908Z,31.65
2022-08-03T12:21:07.895Z,31.69
2022-08-03T12:22:08.013Z,31.88
2022-08-03T12:23:08.215Z,31.71
2022-08-03T12:24:08.274Z,31.72
2022-08-03T12:25:08.332Z,31.65
2022-08-03T12:26:08.474Z,31.69
2022-08-03T12:27:08.547Z,31.62
2022-08-03T12:28:36.972Z,31.62
2022-08-03T12:29:08.643Z,31.72
2022-08-03T12:30:08.699Z,31.79
2022-08-03T12:31:08.757Z,31.82
2022-08-03T12:32:08.871Z,31.88
2022-08-03T12:33:08.945Z,31.97
2022-08-03T12:34:09.089Z,31.97
2022-08-03T12:35:09.086Z,31.98
2022-08-03T12:36:09.239Z,32.13
2022-08-03T12:37:21.736Z,31.94
2022-08-03T12:38:09.297Z,31.91
2022-08-03T12:39:09.389Z,32.05
2022-08-03T12:40:10.802Z,32.21
2022-08-03T12:41:09.521Z,32.14
2022-08-03T12:42:09.668Z,32.05
2022-08-03T12:43:09.679Z,32.14
2022-08-03T12:44:09.726Z,32.13
2022-08-03T12:45:09.808Z,32.10
2022-08-03T12:46:09.899Z,32.22
2022-08-03T12:47:10.097Z,32.34
2022-08-03T12:48:10.108Z,32.29
2022-08-03T12:49:10.171Z,32.41
2022-08-03T12:50:10.225Z,32.36
2022-08-03T12:51:10.299Z,32.31
2022-08-03T12:52:10.417Z,32.44
2022-08-03T12:53:10.429Z,32.54
2022-08-03T12:54:10.518Z,32.72